createdAt,value
2018-02-05T00:00:20.852Z,67.66
2018-02-05T00:02:53.344Z,66.97
2018-02-05T00:05:25.845Z,67.33
2018-02-05T00:07:58.355Z,66.66
2018-02-05T00:10:30.851Z,66.28
2018-02-05T00:13:03.352Z,67.17
2018-02-05T00:15:35.840Z,67.44
2018-02-05T00:18:08.343Z,65.58
2018-02-05T00:20:40.851Z,64.69
2018-02-05T00:23:13.346Z,66.86
2018-02-05T00:25:45.855Z,66.44
2018-02-05T00:28:18.356Z,66.20
2018-02-05T00:30:50.870Z,66.62
2018-02-05T00:33:23.374Z,67.03
2018-02-05T00:35:55.870Z,66.71
2018-02-05T00:38:28.368Z,66.45
2018-02-05T00:41:00.886Z,67.15
2018-02-05T00:43:33.383Z,67.04
2018-02-05T00:46:05.884Z,66.92
2018-02-05T00:48:38.396Z,66.72
2018-02-05T00:51:10.896Z,66.63
2018-02-05T00:56:22.123Z,66.27
2018-02-05T00:58:54.651Z,66.59
2018-02-05T01:01:27.157Z,66.50
2018-02-05T01:03:59.692Z,65.29
2018-02-05T01:06:32.191Z,66.80
2018-02-05T01:09:04.702Z,67.01
2018-02-05T01:11:37.214Z,67.73
2018-02-05T01:14:09.738Z,64.77
2018-02-05T01:16:42.224Z,67.11
2018-02-05T01:19:14.746Z,67.06
2018-02-05T01:21:47.237Z,66.13
2018-02-05T01:24:19.752Z,67.19
2018-02-05T01:26:52.257Z,67.19
2018-02-05T01:29:24.767Z,66.94
2018-02-05T01:31:57.263Z,67.02
2018-02-05T01:34:29.784Z,66.81
2018-02-05T01:37:02.283Z,64.51
2018-02-05T01:39:34.769Z,65.52
2018-02-05T01:42:07.260Z,66.58
2018-02-05T01:44:39.752Z,67.17
2018-02-05T01:47:12.265Z,63.25
2018-02-05T01:49:44.758Z,67.50
2018-02-05T01:52:17.247Z,67.93
2018-02-05T01:54:49.741Z,67.28
2018-02-05T01:57:22.236Z,66.37
2018-02-05T01:59:54.739Z,67.41
2018-02-05T02:02:29.328Z,67.01
2018-02-05T02:05:01.826Z,65.35
2018-02-05T02:07:34.328Z,66.77
2018-02-05T02:10:06.841Z,67.07
2018-02-05T02:12:39.324Z,67.13
2018-02-05T02:15:11.808Z,66.89
2018-02-05T02:17:44.308Z,67.38
2018-02-05T02:20:16.803Z,67.14
2018-02-05T02:22:49.306Z,65.74
2018-02-05T02:25:21.792Z,67.41
2018-02-05T02:27:54.287Z,66.50
2018-02-05T02:30:26.779Z,66.72
2018-02-05T02:32:59.279Z,65.35
2018-02-05T02:35:31.778Z,67.65
2018-02-05T02:38:04.269Z,66.32
2018-02-05T02:40:36.760Z,66.85
2018-02-05T02:43:09.244Z,68.49
2018-02-05T02:45:41.749Z,68.71
2018-02-05T02:48:14.239Z,67.55
2018-02-05T02:50:46.744Z,66.81
2018-02-05T02:53:20.152Z,65.14
2018-02-05T02:55:52.640Z,67.55
2018-02-05T02:58:25.124Z,64.22
2018-02-05T03:00:57.611Z,67.33
2018-02-05T03:03:30.113Z,66.11
2018-02-05T03:06:02.619Z,66.18
2018-02-05T03:08:35.106Z,66.27
2018-02-05T03:11:07.606Z,66.55
2018-02-05T03:13:40.113Z,65.56
2018-02-05T03:16:12.617Z,67.19
2018-02-05T03:18:45.115Z,67.04
2018-02-05T03:21:17.606Z,65.32
2018-02-05T03:23:50.098Z,66.81
2018-02-05T03:26:22.590Z,67.04
2018-02-05T03:28:55.093Z,66.44
2018-02-05T03:31:27.575Z,67.35
2018-02-05T03:34:00.076Z,66.29
2018-02-05T03:36:32.587Z,67.59
2018-02-05T03:39:05.084Z,68.16
2018-02-05T03:41:37.578Z,67.62
2018-02-05T03:44:10.078Z,68.12
2018-02-05T03:46:42.583Z,68.56
2018-02-05T03:49:15.074Z,68.04
2018-02-05T03:51:47.584Z,66.77
2018-02-05T03:54:20.080Z,66.58
2018-02-05T03:56:52.610Z,67.21
2018-02-05T03:59:25.128Z,67.62
2018-02-05T04:01:57.624Z,67.37
2018-02-05T04:04:30.134Z,67.50
2018-02-05T04:07:08.163Z,66.90
2018-02-05T04:09:40.657Z,66.61
2018-02-05T04:12:13.253Z,67.63
2018-02-05T04:14:45.750Z,67.06
2018-02-05T04:17:18.242Z,67.54
2018-02-05T04:19:50.738Z,66.83
2018-02-05T04:22:23.222Z,66.70
2018-02-05T04:24:55.725Z,66.61
2018-02-05T04:27:28.230Z,66.69
2018-02-05T04:30:00.721Z,66.61
2018-02-05T04:32:33.215Z,67.19
2018-02-05T04:35:05.720Z,66.75
2018-02-05T04:37:38.222Z,67.02
2018-02-05T04:40:12.359Z,67.11
2018-02-05T04:42:44.859Z,66.95
2018-02-05T04:45:17.372Z,66.20
2018-02-05T04:47:49.872Z,66.22
2018-02-05T04:50:22.392Z,66.89
2018-02-05T04:52:54.880Z,67.55
2018-02-05T04:55:27.394Z,67.37
2018-02-05T04:57:59.892Z,67.47
2018-02-05T05:00:32.384Z,67.19
2018-02-05T05:03:04.868Z,66.65
2018-02-05T05:05:37.354Z,67.00
2018-02-05T05:08:10.605Z,67.40
2018-02-05T05:10:43.106Z,67.17
2018-02-05T05:13:15.599Z,67.47
2018-02-05T05:15:48.087Z,67.46
2018-02-05T05:18:20.577Z,66.28
2018-02-05T05:20:53.082Z,66.94
2018-02-05T05:23:25.572Z,67.35
2018-02-05T05:25:58.072Z,67.11
2018-02-05T05:28:30.565Z,66.28
2018-02-05T05:31:03.065Z,67.41
2018-02-05T05:33:35.573Z,66.79
2018-02-05T05:36:08.063Z,67.79
2018-02-05T05:38:40.549Z,66.42
2018-02-05T05:41:13.050Z,66.37
2018-02-05T05:43:45.543Z,66.96
2018-02-05T05:46:18.032Z,67.70
2018-02-05T05:48:50.539Z,67.10
2018-02-05T05:51:23.039Z,67.51
2018-02-05T05:53:55.534Z,67.52
2018-02-05T05:56:28.066Z,67.48
2018-02-05T05:59:00.579Z,67.21
2018-02-05T06:01:33.076Z,67.82
2018-02-05T06:04:05.560Z,67.15
2018-02-05T06:06:38.060Z,66.92
2018-02-05T06:09:10.551Z,67.11
2018-02-05T06:11:43.041Z,66.99
2018-02-05T06:14:15.541Z,66.83
2018-02-05T06:16:48.037Z,67.53
2018-02-05T06:19:20.532Z,67.48
2018-02-05T06:21:53.028Z,67.39
2018-02-05T06:24:25.517Z,67.64
2018-02-05T06:26:58.020Z,67.27
2018-02-05T06:29:30.554Z,66.22
2018-02-05T06:32:03.047Z,66.24
2018-02-05T06:34:35.546Z,67.01
2018-02-05T06:37:08.040Z,66.97
2018-02-05T06:39:40.546Z,66.74
2018-02-05T06:42:13.040Z,68.11
2018-02-05T06:44:45.533Z,66.45
2018-02-05T06:47:18.028Z,65.84
2018-02-05T06:49:50.521Z,66.60
2018-02-05T06:52:35.007Z,65.94
2018-02-05T06:55:19.275Z,66.18
2018-02-05T06:57:51.762Z,66.61
2018-02-05T07:00:24.273Z,64.53
2018-02-05T07:02:56.775Z,66.72
2018-02-05T07:05:29.274Z,66.87
2018-02-05T07:08:01.768Z,67.19
2018-02-05T07:10:34.255Z,64.86
2018-02-05T07:13:06.738Z,66.95
2018-02-05T07:15:39.219Z,66.71
2018-02-05T07:18:11.716Z,66.97
2018-02-05T07:20:44.213Z,60.67
2018-02-05T07:23:16.696Z,67.10
2018-02-05T07:25:49.201Z,66.50
2018-02-05T07:28:21.710Z,66.92
2018-02-05T07:30:54.198Z,65.24
2018-02-05T07:33:26.683Z,65.00
2018-02-05T07:35:59.181Z,67.01
2018-02-05T07:38:31.672Z,66.28
2018-02-05T07:41:04.167Z,66.46
2018-02-05T07:43:36.661Z,60.70
2018-02-05T07:46:09.151Z,66.66
2018-02-05T07:48:41.651Z,66.18
2018-02-05T07:51:14.153Z,66.54
2018-02-05T07:53:46.648Z,66.52
2018-02-05T07:56:19.146Z,66.89
2018-02-05T07:58:51.637Z,66.30
2018-02-05T08:01:24.134Z,66.04
2018-02-05T08:03:56.627Z,65.99
2018-02-05T08:06:29.118Z,65.90
2018-02-05T08:09:01.596Z,66.80
2018-02-05T08:11:34.085Z,64.33
2018-02-05T08:14:06.574Z,67.53
2018-02-05T08:16:39.061Z,65.34
2018-02-05T08:19:11.554Z,67.29
2018-02-05T08:21:44.056Z,67.67
2018-02-05T08:24:16.553Z,67.20
2018-02-05T08:26:49.047Z,60.88
2018-02-05T08:29:21.550Z,67.49
2018-02-05T08:31:54.045Z,61.72
2018-02-05T08:34:26.546Z,67.18
2018-02-05T08:36:59.055Z,63.88
2018-02-05T08:39:31.546Z,65.93
2018-02-05T08:42:04.050Z,66.48
2018-02-05T08:44:36.545Z,66.45
2018-02-05T08:47:09.038Z,66.34
2018-02-05T08:49:41.539Z,66.51
2018-02-05T08:52:14.067Z,67.44
2018-02-05T08:54:46.558Z,64.86
2018-02-05T08:57:19.075Z,67.37
2018-02-05T08:59:51.578Z,66.35
2018-02-05T09:02:24.083Z,66.02
2018-02-05T09:04:56.563Z,66.58
2018-02-05T09:07:29.089Z,66.64
2018-02-05T09:10:01.586Z,66.24
2018-02-05T09:12:34.140Z,66.33
2018-02-05T09:15:06.629Z,66.34
2018-02-05T09:17:39.144Z,66.49
2018-02-05T09:20:11.651Z,65.44
2018-02-05T09:22:44.163Z,66.73
2018-02-05T09:25:16.663Z,66.97
2018-02-05T09:27:49.163Z,66.21
2018-02-05T09:30:21.744Z,66.17
2018-02-05T09:32:54.200Z,67.36
2018-02-05T09:35:26.696Z,66.21
2018-02-05T09:37:59.193Z,66.06
2018-02-05T09:40:31.676Z,65.55
2018-02-05T09:43:04.169Z,66.78
2018-02-05T09:45:36.664Z,63.93
2018-02-05T09:48:09.173Z,66.31
2018-02-05T09:50:41.676Z,66.87
2018-02-05T09:53:14.168Z,60.43
2018-02-05T09:55:46.654Z,64.38
2018-02-05T09:58:19.140Z,68.16
2018-02-05T10:00:51.628Z,66.92
2018-02-05T10:03:24.131Z,66.73
2018-02-05T10:05:56.614Z,66.25
2018-02-05T10:08:29.110Z,66.21
2018-02-05T10:11:01.608Z,66.74
2018-02-05T10:13:34.102Z,66.20
2018-02-05T10:16:06.591Z,58.34
2018-02-05T10:18:39.131Z,65.31
2018-02-05T10:21:11.624Z,67.81
2018-02-05T10:23:44.117Z,60.54
2018-02-05T10:26:16.607Z,61.27
2018-02-05T10:28:49.091Z,65.21
2018-02-05T10:31:21.585Z,65.34
2018-02-05T10:33:54.095Z,61.81
2018-02-05T10:36:26.591Z,62.48
2018-02-05T10:38:59.091Z,64.59
2018-02-05T10:41:31.609Z,64.35
2018-02-05T10:44:04.113Z,58.44
2018-02-05T10:46:36.613Z,65.71
2018-02-05T10:49:09.099Z,61.43
2018-02-05T10:51:41.601Z,65.15
2018-02-05T10:54:14.104Z,66.25
2018-02-05T10:56:46.593Z,64.89
2018-02-05T10:59:19.089Z,64.00
2018-02-05T11:01:51.583Z,61.04
2018-02-05T11:07:02.823Z,63.19
2018-02-05T11:09:35.316Z,62.83
2018-02-05T11:12:07.815Z,65.46
2018-02-05T11:14:40.310Z,61.26
2018-02-05T11:17:12.807Z,64.51
2018-02-05T11:19:45.300Z,54.68
2018-02-05T11:22:17.789Z,65.30
2018-02-05T11:24:50.289Z,61.96
2018-02-05T11:27:22.784Z,63.27
2018-02-05T11:29:55.278Z,63.80
2018-02-05T11:32:27.773Z,59.02
2018-02-05T11:35:00.268Z,61.61
2018-02-05T11:37:32.766Z,55.11
2018-02-05T11:40:05.243Z,60.19
2018-02-05T11:42:37.736Z,65.45
2018-02-05T11:45:10.236Z,54.27
2018-02-05T11:47:42.724Z,54.38
2018-02-05T11:50:15.218Z,63.37
2018-02-05T11:52:47.721Z,62.69
2018-02-05T11:55:20.209Z,53.20
2018-02-05T11:57:52.702Z,63.50
2018-02-05T12:00:25.202Z,65.00
2018-02-05T12:02:57.712Z,64.34
2018-02-05T12:05:30.216Z,64.43
2018-02-05T12:08:02.711Z,62.85
2018-02-05T12:10:35.226Z,60.56
2018-02-05T12:13:07.725Z,64.22
2018-02-05T12:15:40.210Z,64.40
2018-02-05T12:18:12.696Z,58.20
2018-02-05T12:20:45.180Z,63.28
2018-02-05T12:23:17.715Z,65.16
2018-02-05T12:25:50.205Z,60.82
2018-02-05T12:28:22.721Z,61.80
2018-02-05T12:30:55.207Z,62.03
2018-02-05T12:33:27.732Z,63.39
2018-02-05T12:36:00.229Z,59.72
2018-02-05T12:38:33.596Z,62.98
2018-02-05T12:41:06.087Z,62.36
2018-02-05T12:43:38.612Z,64.14
2018-02-05T12:46:11.095Z,60.57
2018-02-05T12:48:43.606Z,56.12
2018-02-05T12:51:16.098Z,51.51
2018-02-05T12:53:48.611Z,58.34
2018-02-05T12:56:21.106Z,60.28
2018-02-05T12:58:53.601Z,60.81
2018-02-05T13:01:41.774Z,52.74
2018-02-05T13:04:19.827Z,60.86
2018-02-05T13:06:52.525Z,61.88
2018-02-05T13:09:25.033Z,60.15
2018-02-05T13:11:57.549Z,61.14
2018-02-05T13:14:30.036Z,59.78
2018-02-05T13:17:02.978Z,57.24
2018-02-05T13:19:35.528Z,63.86
2018-02-05T13:22:08.033Z,60.54
2018-02-05T13:24:40.519Z,59.76
2018-02-05T13:27:13.024Z,57.31
2018-02-05T13:29:45.528Z,54.12
2018-02-05T13:32:18.019Z,52.08
2018-02-05T13:34:50.511Z,61.90
2018-02-05T13:37:23.006Z,62.75
2018-02-05T13:39:57.459Z,62.88
2018-02-05T13:42:29.956Z,62.86
2018-02-05T13:45:02.471Z,63.49
2018-02-05T13:47:35.004Z,59.65
2018-02-05T13:50:07.505Z,59.07
2018-02-05T13:52:40.008Z,59.94
2018-02-05T13:55:12.496Z,62.28
2018-02-05T13:57:44.987Z,62.34
2018-02-05T14:00:17.476Z,57.50
2018-02-05T14:02:50.037Z,61.59
2018-02-05T14:05:22.536Z,59.86
2018-02-05T14:07:55.021Z,50.56
2018-02-05T14:10:27.510Z,50.81
2018-02-05T14:12:59.995Z,60.95
2018-02-05T14:15:32.499Z,61.23
2018-02-05T14:18:05.000Z,63.51
2018-02-05T14:20:37.531Z,62.56
2018-02-05T14:23:10.048Z,62.84
2018-02-05T14:25:42.544Z,62.94
2018-02-05T14:28:15.060Z,61.61
2018-02-05T14:30:47.548Z,61.54
2018-02-05T14:33:20.046Z,63.58
2018-02-05T14:35:52.554Z,58.55
2018-02-05T14:38:27.064Z,63.06
2018-02-05T14:40:59.568Z,63.36
2018-02-05T14:43:32.095Z,63.08
2018-02-05T14:46:04.596Z,63.46
2018-02-05T14:48:37.090Z,49.35
2018-02-05T14:51:09.601Z,50.71
2018-02-05T14:53:42.108Z,61.06
2018-02-05T14:56:14.596Z,60.64
2018-02-05T14:58:47.093Z,63.12
2018-02-05T15:01:19.573Z,61.46
2018-02-05T15:03:52.065Z,61.84
2018-02-05T15:06:24.561Z,51.62
2018-02-05T15:08:57.053Z,62.77
2018-02-05T15:11:29.559Z,61.81
2018-02-05T15:14:02.050Z,59.97
2018-02-05T15:16:34.573Z,59.75
2018-02-05T15:19:07.076Z,62.02
2018-02-05T15:21:39.575Z,62.80
2018-02-05T15:24:12.124Z,60.63
2018-02-05T15:26:44.676Z,55.54
2018-02-05T15:29:17.181Z,63.65
2018-02-05T15:31:49.684Z,62.85
2018-02-05T15:34:22.173Z,64.34
2018-02-05T15:36:54.665Z,59.25
2018-02-05T15:39:27.172Z,63.67
2018-02-05T15:41:59.670Z,63.19
2018-02-05T15:44:32.241Z,63.82
2018-02-05T15:47:04.759Z,63.73
2018-02-05T15:49:37.295Z,63.67
2018-02-05T15:52:09.795Z,62.87
2018-02-05T15:54:42.635Z,64.07
2018-02-05T15:57:15.485Z,63.96
2018-02-05T15:59:48.327Z,58.81
2018-02-05T16:02:21.059Z,63.69
2018-02-05T16:04:53.807Z,63.60
2018-02-05T16:07:26.704Z,64.38
2018-02-05T16:09:59.751Z,64.10
2018-02-05T16:12:32.514Z,63.49
2018-02-05T16:15:05.097Z,63.59
2018-02-05T16:17:37.579Z,63.88
2018-02-05T16:20:10.109Z,63.11
2018-02-05T16:22:42.611Z,63.27
2018-02-05T16:25:15.121Z,62.81
2018-02-05T16:27:47.630Z,63.71
2018-02-05T16:30:20.184Z,63.99
2018-02-05T16:32:52.691Z,64.25
2018-02-05T16:35:25.211Z,64.22
2018-02-05T16:37:57.706Z,64.77
2018-02-05T16:40:30.223Z,63.31
2018-02-05T16:43:02.722Z,63.82
2018-02-05T16:45:35.258Z,64.28
2018-02-05T16:48:07.750Z,63.78
2018-02-05T16:50:40.275Z,63.68
2018-02-05T16:53:12.774Z,64.71
2018-02-05T16:55:45.335Z,63.41
2018-02-05T16:58:17.871Z,64.52
2018-02-05T17:00:50.423Z,64.07
2018-02-05T17:03:22.916Z,64.65
2018-02-05T17:05:55.451Z,63.86
2018-02-05T17:08:27.978Z,64.51
2018-02-05T17:11:00.559Z,64.19
2018-02-05T17:13:33.105Z,63.68
2018-02-05T17:16:05.795Z,63.50
2018-02-05T17:18:38.357Z,64.55
2018-02-05T17:21:10.934Z,64.48
2018-02-05T17:23:43.479Z,64.24
2018-02-05T17:26:16.076Z,64.40
2018-02-05T17:28:48.634Z,64.30
2018-02-05T17:31:21.200Z,63.73
2018-02-05T17:33:53.716Z,64.43
2018-02-05T17:36:26.296Z,64.27
2018-02-05T17:38:58.814Z,64.22
2018-02-05T17:41:31.402Z,64.00
2018-02-05T17:44:04.003Z,64.70
2018-02-05T17:46:36.583Z,64.77
2018-02-05T17:49:09.163Z,64.42
2018-02-05T17:51:42.289Z,64.00
2018-02-05T17:54:14.822Z,63.79
2018-02-05T17:56:47.399Z,64.10
2018-02-05T17:59:20.228Z,63.45
2018-02-05T18:01:56.107Z,60.82
2018-02-05T18:04:28.614Z,63.79
2018-02-05T18:07:01.409Z,64.75
2018-02-05T18:09:34.083Z,63.92
2018-02-05T18:12:06.660Z,64.49
2018-02-05T18:14:39.203Z,63.97
2018-02-05T18:17:12.067Z,56.02
2018-02-05T18:19:44.630Z,64.85
2018-02-05T18:22:17.209Z,64.61
2018-02-05T18:24:49.787Z,64.69
2018-02-05T18:27:22.369Z,64.87
2018-02-05T18:29:54.978Z,64.88
2018-02-05T18:32:27.737Z,64.89
2018-02-05T18:35:00.352Z,58.20
2018-02-05T18:37:33.364Z,64.45
2018-02-05T18:40:05.935Z,64.15
2018-02-05T18:42:38.677Z,64.64
2018-02-05T18:45:11.338Z,64.04
2018-02-05T18:47:44.494Z,64.90
2018-02-05T18:50:17.136Z,64.83
2018-02-05T18:52:50.495Z,64.81
2018-02-05T18:55:23.366Z,64.53
2018-02-05T18:57:56.148Z,64.83
2018-02-05T19:00:42.779Z,64.67
2018-02-05T19:03:15.280Z,64.84
2018-02-05T19:05:48.413Z,64.95
2018-02-05T19:08:21.140Z,65.05
2018-02-05T19:10:53.685Z,64.34
2018-02-05T19:13:26.272Z,64.87
2018-02-05T19:15:59.992Z,65.00
2018-02-05T19:18:32.714Z,65.02
2018-02-05T19:21:05.261Z,65.14
2018-02-05T19:23:37.910Z,65.12
2018-02-05T19:26:10.427Z,64.13
2018-02-05T19:28:43.101Z,64.81
2018-02-05T19:31:15.741Z,64.77
2018-02-05T19:33:48.249Z,65.02
2018-02-05T19:36:20.793Z,64.88
2018-02-05T19:38:53.347Z,64.55
2018-02-05T19:41:25.866Z,65.15
2018-02-05T19:43:58.359Z,65.16
2018-02-05T19:46:30.877Z,65.01
2018-02-05T19:49:03.364Z,64.92
2018-02-05T19:51:35.882Z,65.09
2018-02-05T19:54:08.384Z,64.90
2018-02-05T19:56:40.921Z,64.94
2018-02-05T19:59:13.442Z,64.81
2018-02-05T20:01:45.966Z,64.86
2018-02-05T20:04:18.475Z,64.94
2018-02-05T20:06:50.980Z,65.20
2018-02-05T20:09:23.495Z,65.05
2018-02-05T20:11:56.035Z,64.44
2018-02-05T20:14:28.692Z,64.69
2018-02-05T20:17:01.288Z,64.81
2018-02-05T20:19:33.778Z,65.24
2018-02-05T20:22:06.315Z,64.49
2018-02-05T20:24:38.820Z,65.16
2018-02-05T20:27:11.330Z,64.40
2018-02-05T20:29:43.836Z,64.94
2018-02-05T20:32:16.374Z,64.65
2018-02-05T20:34:48.897Z,64.52
2018-02-05T20:37:21.458Z,64.98
2018-02-05T20:39:53.957Z,64.88
2018-02-05T20:42:26.496Z,64.86
2018-02-05T20:44:58.999Z,64.44
2018-02-05T20:47:31.509Z,64.99
2018-02-05T20:50:04.299Z,64.40
2018-02-05T20:52:36.879Z,64.67
2018-02-05T20:55:09.386Z,64.97
2018-02-05T20:57:41.968Z,64.72
2018-02-05T21:00:14.519Z,64.81
2018-02-05T21:02:47.215Z,64.74
2018-02-05T21:05:19.727Z,64.74
2018-02-05T21:07:52.236Z,64.67
2018-02-05T21:10:24.732Z,63.47
2018-02-05T21:12:58.284Z,64.79
2018-02-05T21:15:30.803Z,64.71
2018-02-05T21:18:03.313Z,64.91
2018-02-05T21:20:35.856Z,64.72
2018-02-05T21:23:08.364Z,64.69
2018-02-05T21:25:40.859Z,64.50
2018-02-05T21:28:13.367Z,64.86
2018-02-05T21:30:45.858Z,64.68
2018-02-05T21:33:18.365Z,64.19
2018-02-05T21:35:50.908Z,64.25
2018-02-05T21:38:23.443Z,64.58
2018-02-05T21:40:55.931Z,64.88
2018-02-05T21:43:28.465Z,64.67
2018-02-05T21:46:00.983Z,64.46
2018-02-05T21:48:33.545Z,64.56
2018-02-05T21:51:06.036Z,64.35
2018-02-05T21:53:38.548Z,64.41
2018-02-05T21:56:11.054Z,64.64
2018-02-05T21:58:43.675Z,64.81
2018-02-05T22:01:18.225Z,64.60
2018-02-05T22:03:50.732Z,64.88
2018-02-05T22:06:23.297Z,64.74
2018-02-05T22:08:56.611Z,64.92
2018-02-05T22:11:29.099Z,64.98
2018-02-05T22:14:01.650Z,64.79
2018-02-05T22:16:34.151Z,64.83
2018-02-05T22:19:06.699Z,65.02
2018-02-05T22:21:39.179Z,64.93
2018-02-05T22:24:11.703Z,65.32
2018-02-05T22:26:44.210Z,65.28
2018-02-05T22:29:16.724Z,65.33
2018-02-05T22:31:49.215Z,65.29
2018-02-05T22:34:21.719Z,65.30
2018-02-05T22:36:54.216Z,65.37
2018-02-05T22:39:26.731Z,65.39
2018-02-05T22:41:59.216Z,65.43
2018-02-05T22:44:31.751Z,65.27
2018-02-05T22:47:04.264Z,65.32
2018-02-05T22:49:36.862Z,65.21
2018-02-05T22:52:09.490Z,65.18
2018-02-05T22:54:42.056Z,65.09
2018-02-05T22:57:14.594Z,65.03
2018-02-05T22:59:47.095Z,65.30
2018-02-05T23:02:19.614Z,65.23
2018-02-05T23:04:52.105Z,65.19
2018-02-05T23:07:24.653Z,65.20
2018-02-05T23:09:57.151Z,65.27
2018-02-05T23:12:29.658Z,65.03
2018-02-05T23:15:02.149Z,64.82
2018-02-05T23:17:34.695Z,64.65
2018-02-05T23:20:07.196Z,65.09
2018-02-05T23:22:39.717Z,65.14
2018-02-05T23:25:12.194Z,65.17
2018-02-05T23:27:44.779Z,65.00
2018-02-05T23:30:17.279Z,64.72
2018-02-05T23:32:49.804Z,64.98
2018-02-05T23:35:22.317Z,64.76
2018-02-05T23:37:54.828Z,64.98
2018-02-05T23:40:27.313Z,65.08
2018-02-05T23:42:59.819Z,64.98
2018-02-05T23:45:32.369Z,65.01
2018-02-05T23:48:04.930Z,65.07
2018-02-05T23:50:37.449Z,64.95
2018-02-05T23:53:09.962Z,64.73
2018-02-05T23:55:42.517Z,64.75
2018-02-05T23:58:15.048Z,65.07
